createdAt,value
2022-12-09T00:00:09.248Z,100420.38
2022-12-09T00:02:36.691Z,100423.25
2022-12-09T00:05:05.146Z,100428.31
2022-12-09T00:07:34.307Z,100424.44
2022-12-09T00:10:01.495Z,100408.84
2022-12-09T00:12:28.627Z,100425.88
2022-12-09T00:14:55.585Z,100417.00
2022-12-09T00:17:22.691Z,100421.59
2022-12-09T00:19:49.794Z,100425.88
2022-12-09T00:22:16.811Z,100429.56
2022-12-09T00:24:43.788Z,100434.59
2022-12-09T00:27:11.056Z,100431.56
2022-12-09T00:29:38.042Z,100440.00
2022-12-09T00:32:05.654Z,100432.06
2022-12-09T00:34:32.948Z,100433.22
2022-12-09T00:37:00.122Z,100441.34
2022-12-09T00:39:27.476Z,100433.31
2022-12-09T00:41:54.575Z,100412.28
2022-12-09T00:44:21.599Z,100436.19
2022-12-09T00:46:49.517Z,100435.34
2022-12-09T00:49:16.735Z,100423.16
2022-12-09T00:51:43.721Z,100422.41
2022-12-09T00:54:10.791Z,100432.31
2022-12-09T00:56:37.800Z,100431.88
2022-12-09T00:59:04.919Z,100431.72
2022-12-09T01:01:32.244Z,100431.84
2022-12-09T01:03:59.634Z,100428.19
2022-12-09T01:06:27.197Z,100437.13
2022-12-09T01:08:55.149Z,100436.84
2022-12-09T01:11:25.909Z,100444.13
2022-12-09T01:13:53.649Z,100437.78
2022-12-09T01:16:24.992Z,100436.66
2022-12-09T01:18:54.159Z,100435.66
2022-12-09T01:21:21.460Z,100434.16
2022-12-09T01:23:48.665Z,100437.50
2022-12-09T01:26:15.938Z,100437.34
2022-12-09T01:28:42.975Z,100435.38
2022-12-09T01:31:13.082Z,100428.38
2022-12-09T01:33:40.861Z,100438.59
2022-12-09T01:36:11.871Z,100430.81
2022-12-09T01:38:38.967Z,100424.56
2022-12-09T01:41:06.575Z,100426.69
2022-12-09T01:43:33.553Z,100415.94
2022-12-09T01:46:00.552Z,100420.75
2022-12-09T01:48:49.391Z,100420.00
2022-12-09T01:51:19.998Z,100412.66
2022-12-09T01:53:50.317Z,100414.16
2022-12-09T01:56:25.594Z,100416.72
2022-12-09T01:58:55.084Z,100417.34
2022-12-09T02:01:22.641Z,100421.16
2022-12-09T02:03:50.339Z,100404.41
2022-12-09T02:06:17.935Z,100420.72
2022-12-09T02:08:48.888Z,100421.81
2022-12-09T02:11:30.108Z,100420.53
2022-12-09T02:14:43.605Z,100399.56
2022-12-09T02:17:26.059Z,100417.88
2022-12-09T02:20:16.736Z,100413.53
2022-12-09T02:22:46.523Z,100414.50
2022-12-09T02:25:44.602Z,100402.91
2022-12-09T02:28:14.932Z,100411.38
2022-12-09T02:31:02.038Z,100402.00
2022-12-09T02:33:58.616Z,100409.19
2022-12-09T02:36:30.456Z,100396.44
2022-12-09T02:39:00.372Z,100389.38
2022-12-09T02:41:33.813Z,100409.31
2022-12-09T02:44:10.713Z,100404.22
2022-12-09T02:46:38.765Z,100403.41
2022-12-09T02:49:09.471Z,100414.06
2022-12-09T02:51:42.393Z,100406.13
2022-12-09T02:54:16.448Z,100394.88
2022-12-09T02:56:54.103Z,100412.75
2022-12-09T02:59:22.180Z,100411.06
2022-12-09T03:02:18.826Z,100414.69
2022-12-09T03:05:03.954Z,100410.34
2022-12-09T03:08:03.359Z,100405.28
2022-12-09T03:10:30.473Z,100402.19
2022-12-09T03:13:05.133Z,100385.69
2022-12-09T03:15:38.351Z,100391.34
2022-12-09T03:18:10.981Z,100392.28
2022-12-09T03:20:41.497Z,100382.81
2022-12-09T03:23:10.512Z,100388.66
2022-12-09T03:25:48.968Z,100394.81
2022-12-09T03:28:24.530Z,100383.03
2022-12-09T03:30:54.543Z,100384.66
2022-12-09T03:33:24.440Z,100375.91
2022-12-09T03:35:58.249Z,100381.59
2022-12-09T03:38:28.866Z,100385.03
2022-12-09T03:41:07.308Z,100379.47
2022-12-09T03:43:38.862Z,100376.66
2022-12-09T03:46:06.466Z,100369.72
2022-12-09T03:48:34.010Z,100386.00
2022-12-09T03:51:09.324Z,100381.84
2022-12-09T03:53:47.347Z,100382.50
2022-12-09T03:56:27.161Z,100382.81
2022-12-09T03:58:57.179Z,100382.66
2022-12-09T04:01:25.563Z,100379.38
2022-12-09T04:03:56.273Z,100374.84
2022-12-09T04:06:24.276Z,100371.91
2022-12-09T04:08:51.459Z,100372.91
2022-12-09T04:11:18.506Z,100364.69
2022-12-09T04:13:45.577Z,100361.72
2022-12-09T04:16:12.939Z,100370.03
2022-12-09T04:18:40.257Z,100366.06
2022-12-09T04:21:09.737Z,100365.53
2022-12-09T04:23:42.413Z,100371.84
2022-12-09T04:26:20.658Z,100365.28
2022-12-09T04:28:48.124Z,100368.66
2022-12-09T04:31:17.528Z,100370.34
2022-12-09T04:33:45.040Z,100368.97
2022-12-09T04:36:36.596Z,100366.06
2022-12-09T04:43:24.089Z,100362.09
2022-12-09T04:46:19.530Z,100363.69
2022-12-09T04:49:16.185Z,100371.25
2022-12-09T04:51:46.392Z,100363.31
2022-12-09T04:54:14.655Z,100368.34
2022-12-09T04:56:42.615Z,100360.44
2022-12-09T04:59:09.676Z,100358.22
2022-12-09T05:01:37.324Z,100358.16
2022-12-09T05:04:04.792Z,100358.88
2022-12-09T05:06:32.804Z,100351.38
2022-12-09T05:09:00.375Z,100345.66
2022-12-09T05:12:13.092Z,100347.63
2022-12-09T05:14:40.148Z,100350.38
2022-12-09T05:17:10.259Z,100343.81
2022-12-09T05:20:10.731Z,100339.84
2022-12-09T05:22:43.605Z,100337.69
2022-12-09T05:25:10.905Z,100353.25
2022-12-09T05:27:43.953Z,100353.94
2022-12-09T05:30:17.530Z,100341.53
2022-12-09T05:32:47.516Z,100351.59
2022-12-09T05:35:14.833Z,100340.75
2022-12-09T05:37:48.059Z,100349.31
2022-12-09T05:40:21.159Z,100348.47
2022-12-09T05:42:48.549Z,100350.75
2022-12-09T05:45:16.760Z,100347.75
2022-12-09T05:47:44.176Z,100324.56
2022-12-09T05:50:12.485Z,100348.81
2022-12-09T05:52:40.344Z,100330.84
2022-12-09T05:55:09.556Z,100336.78
2022-12-09T05:57:37.463Z,100327.81
2022-12-09T06:00:23.232Z,100341.31
2022-12-09T06:03:02.587Z,100335.22
2022-12-09T06:06:35.941Z,100336.06
2022-12-09T06:09:11.819Z,100326.28
2022-12-09T06:11:43.789Z,100324.00
2022-12-09T06:14:35.943Z,100305.81
2022-12-09T06:17:12.004Z,100327.03
2022-12-09T06:20:03.313Z,100328.25
2022-12-09T06:22:48.685Z,100330.41
2022-12-09T06:25:16.056Z,100337.56
2022-12-09T06:27:54.589Z,100328.09
2022-12-09T06:30:36.021Z,100325.50
2022-12-09T06:33:09.288Z,100316.09
2022-12-09T06:35:50.615Z,100319.28
2022-12-09T06:38:18.015Z,100333.63
2022-12-09T06:40:45.358Z,100326.44
2022-12-09T06:43:12.802Z,100323.53
2022-12-09T06:45:45.673Z,100337.66
2022-12-09T06:48:24.309Z,100327.50
2022-12-09T06:51:15.830Z,100326.75
2022-12-09T06:53:46.194Z,100325.22
2022-12-09T06:56:15.000Z,100327.53
2022-12-09T06:58:46.484Z,100301.72
2022-12-09T07:01:20.029Z,100307.88
2022-12-09T07:03:53.339Z,100319.28
2022-12-09T07:06:35.457Z,100317.78
2022-12-09T07:09:20.935Z,100298.56
2022-12-09T07:12:06.736Z,100306.13
2022-12-09T07:14:39.958Z,100304.50
2022-12-09T07:17:17.612Z,100313.78
2022-12-09T07:19:48.439Z,100308.16
2022-12-09T07:22:34.317Z,100304.69
2022-12-09T07:25:07.757Z,100312.59
2022-12-09T07:27:38.132Z,100303.03
2022-12-09T07:30:14.452Z,100303.59
2022-12-09T07:32:47.396Z,100308.16
2022-12-09T07:35:18.080Z,100297.78
2022-12-09T07:37:45.267Z,100298.41
2022-12-09T07:40:17.926Z,100324.78
2022-12-09T07:42:59.796Z,100325.78
2022-12-09T07:45:27.166Z,100316.31
2022-12-09T07:47:54.575Z,100314.00
2022-12-09T07:50:22.164Z,100310.44
2022-12-09T07:52:49.337Z,100307.81
2022-12-09T07:55:16.636Z,100316.97
2022-12-09T07:57:44.249Z,100309.47
2022-12-09T08:00:12.244Z,100309.09
2022-12-09T08:02:45.074Z,100296.56
2022-12-09T08:05:36.691Z,100288.22
2022-12-09T08:08:04.230Z,100272.91
2022-12-09T08:10:31.789Z,100286.06
2022-12-09T08:12:59.379Z,100289.88
2022-12-09T08:15:26.747Z,100281.03
2022-12-09T08:17:53.981Z,100285.88
2022-12-09T08:20:27.386Z,100279.31
2022-12-09T08:22:57.112Z,100273.06
2022-12-09T08:25:24.410Z,100267.13
2022-12-09T08:27:52.081Z,100265.97
2022-12-09T08:30:19.732Z,100252.09
2022-12-09T08:32:47.871Z,100241.84
2022-12-09T08:35:15.652Z,100253.25
2022-12-09T08:37:43.756Z,100226.06
2022-12-09T08:40:12.532Z,100242.88
2022-12-09T08:42:40.564Z,100239.13
2022-12-09T08:45:08.017Z,100240.56
2022-12-09T08:47:35.447Z,100236.59
2022-12-09T08:50:03.105Z,100227.16
2022-12-09T08:52:32.256Z,100235.41
2022-12-09T08:55:02.895Z,100228.63
2022-12-09T08:57:30.245Z,100204.63
2022-12-09T08:59:57.268Z,100214.31
2022-12-09T09:02:24.588Z,100203.47
2022-12-09T09:04:52.055Z,100198.34
2022-12-09T09:07:19.382Z,100207.44
2022-12-09T09:09:47.031Z,100208.34
2022-12-09T09:12:14.222Z,100212.06
2022-12-09T09:14:41.372Z,100194.84
2022-12-09T09:17:08.561Z,100203.03
2022-12-09T09:19:36.028Z,100205.53
2022-12-09T09:22:03.751Z,100199.69
2022-12-09T09:24:31.990Z,100195.56
2022-12-09T09:26:59.604Z,100185.47
2022-12-09T09:29:27.009Z,100192.31
2022-12-09T09:31:54.871Z,100189.31
2022-12-09T09:34:23.175Z,100188.50
2022-12-09T09:36:51.339Z,100173.59
2022-12-09T09:39:20.103Z,100177.72
2022-12-09T09:41:58.753Z,100179.09
2022-12-09T09:45:20.791Z,100170.63
2022-12-09T09:48:06.541Z,100159.00
2022-12-09T09:51:02.324Z,100161.19
2022-12-09T09:53:45.553Z,100157.19
2022-12-09T09:57:04.379Z,100152.66
2022-12-09T10:00:08.461Z,100150.97
2022-12-09T10:03:28.578Z,100152.88
2022-12-09T10:06:27.129Z,100147.25
2022-12-09T10:09:08.486Z,100132.13
2022-12-09T10:12:09.705Z,100130.53
2022-12-09T10:14:49.512Z,100131.28
2022-12-09T10:17:47.878Z,100132.75
2022-12-09T10:20:42.469Z,100129.38
2022-12-09T10:23:14.551Z,100142.84
2022-12-09T10:25:52.912Z,100131.63
2022-12-09T10:28:27.083Z,100129.00
2022-12-09T10:30:56.403Z,100116.19
2022-12-09T10:33:36.236Z,100116.34
2022-12-09T10:36:05.017Z,100130.13
2022-12-09T10:38:37.801Z,100125.19
2022-12-09T10:41:14.682Z,100125.94
2022-12-09T10:43:42.428Z,100122.41
2022-12-09T10:46:24.383Z,100116.75
2022-12-09T10:48:53.873Z,100127.56
2022-12-09T10:51:24.994Z,100119.59
2022-12-09T10:53:54.336Z,100116.84
2022-12-09T10:56:35.822Z,100109.88
2022-12-09T10:59:08.973Z,100112.78
2022-12-09T11:01:51.650Z,100098.59
2022-12-09T11:04:26.618Z,100101.53
2022-12-09T11:07:02.937Z,100102.66
2022-12-09T11:09:35.757Z,100102.44
2022-12-09T11:12:06.739Z,100098.84
2022-12-09T11:14:39.013Z,100097.09
2022-12-09T11:17:28.284Z,100091.59
2022-12-09T11:20:18.391Z,100093.72
2022-12-09T11:22:58.517Z,100074.06
2022-12-09T11:25:28.967Z,100083.63
2022-12-09T11:27:58.372Z,100084.63
2022-12-09T11:30:32.677Z,100085.84
2022-12-09T11:33:23.626Z,100088.56
2022-12-09T11:35:55.711Z,100092.09
2022-12-09T11:38:37.728Z,100078.25
2022-12-09T11:41:07.084Z,100086.28
2022-12-09T11:43:36.832Z,100080.81
2022-12-09T11:46:15.575Z,100065.00
2022-12-09T11:48:48.353Z,100069.47
2022-12-09T11:51:33.623Z,100064.84
2022-12-09T11:54:16.281Z,100058.44
2022-12-09T11:56:43.965Z,100055.78
2022-12-09T11:59:16.540Z,100061.00
2022-12-09T12:01:57.828Z,100057.38
2022-12-09T12:04:36.257Z,100055.94
2022-12-09T12:07:25.596Z,100060.44
2022-12-09T12:09:58.545Z,100062.13
2022-12-09T12:12:44.879Z,100064.50
2022-12-09T12:15:43.449Z,100040.16
2022-12-09T12:18:18.103Z,100025.50
2022-12-09T12:21:03.867Z,100057.84
2022-12-09T12:23:49.155Z,100065.22
2022-12-09T12:26:23.817Z,100056.31
2022-12-09T12:29:06.946Z,100057.63
2022-12-09T12:31:55.926Z,100061.31
2022-12-09T12:34:44.315Z,100056.91
2022-12-09T12:37:11.281Z,100059.22
2022-12-09T12:39:56.762Z,100059.66
2022-12-09T12:43:11.447Z,100050.19
2022-12-09T12:46:17.690Z,100062.06
2022-12-09T12:48:53.840Z,100058.22
2022-12-09T12:51:35.802Z,100055.72
2022-12-09T12:54:16.160Z,100055.38
2022-12-09T12:56:56.686Z,100057.56
2022-12-09T12:59:31.091Z,100066.69
2022-12-09T13:02:10.286Z,100064.13
2022-12-09T13:04:58.969Z,100068.75
2022-12-09T13:07:44.387Z,100049.47
2022-12-09T13:10:41.916Z,100059.00
2022-12-09T13:13:18.883Z,100047.13
2022-12-09T13:15:51.812Z,100050.53
2022-12-09T13:18:33.694Z,100056.44
2022-12-09T13:21:03.155Z,100050.31
2022-12-09T13:23:58.730Z,100058.31
2022-12-09T13:26:47.816Z,100038.78
2022-12-09T13:29:45.865Z,100057.53
2022-12-09T13:32:39.431Z,100037.31
2022-12-09T13:35:29.644Z,100043.09
2022-12-09T13:37:58.130Z,100049.63
2022-12-09T13:40:25.011Z,100040.28
2022-12-09T13:43:16.668Z,100041.00
2022-12-09T13:45:43.615Z,100036.63
2022-12-09T13:48:17.351Z,100035.50
2022-12-09T13:50:57.796Z,100034.94
2022-12-09T13:53:38.119Z,100035.16
2022-12-09T13:56:17.296Z,100032.47
2022-12-09T13:59:24.250Z,100027.94
2022-12-09T14:01:57.141Z,100022.59
2022-12-09T14:04:30.553Z,100016.81
2022-12-09T14:07:24.893Z,99992.81
2022-12-09T14:09:57.568Z,100012.28
2022-12-09T14:12:28.643Z,100014.59
2022-12-09T14:14:55.593Z,100009.28
2022-12-09T14:17:26.034Z,100014.66
2022-12-09T14:20:01.115Z,100016.69
2022-12-09T14:22:31.399Z,100016.81
2022-12-09T14:25:18.988Z,100015.66
2022-12-09T14:28:10.902Z,100007.47
2022-12-09T14:30:40.914Z,99999.63
2022-12-09T14:33:34.050Z,99997.88
2022-12-09T14:36:08.644Z,100005.38
2022-12-09T14:41:59.283Z,99983.84
2022-12-09T14:44:35.622Z,99988.94
2022-12-09T14:47:31.039Z,99989.97
2022-12-09T14:50:09.387Z,99974.03
2022-12-09T14:52:36.871Z,99967.13
2022-12-09T14:55:08.357Z,99976.09
2022-12-09T14:57:46.626Z,99974.34
2022-12-09T15:00:33.649Z,99977.09
2022-12-09T15:03:31.456Z,99972.91
2022-12-09T15:05:58.635Z,99966.81
2022-12-09T15:08:40.502Z,99960.72
2022-12-09T15:11:23.548Z,99970.25
2022-12-09T15:13:52.577Z,99978.56
2022-12-09T15:16:23.548Z,99972.16
2022-12-09T15:18:51.700Z,99974.81
2022-12-09T15:21:30.422Z,99975.28
2022-12-09T15:23:59.470Z,99985.63
2022-12-09T15:26:32.857Z,99981.63
2022-12-09T15:29:01.369Z,99984.84
2022-12-09T15:31:31.118Z,99980.28
2022-12-09T15:34:00.766Z,99982.91
2022-12-09T15:36:29.464Z,99982.44
2022-12-09T15:39:05.104Z,99973.91
2022-12-09T15:42:02.875Z,99983.28
2022-12-09T15:44:55.613Z,99979.59
2022-12-09T15:47:32.313Z,99981.53
2022-12-09T15:50:14.735Z,99975.09
2022-12-09T15:52:47.131Z,99960.06
2022-12-09T15:55:17.986Z,99970.25
2022-12-09T15:57:46.156Z,99960.56
2022-12-09T16:00:14.273Z,99966.94
2022-12-09T16:02:41.602Z,99960.72
2022-12-09T16:05:10.593Z,99960.00
2022-12-09T16:07:38.440Z,99950.69
2022-12-09T16:10:26.857Z,99959.81
2022-12-09T16:13:12.640Z,99956.09
2022-12-09T16:15:47.028Z,99963.53
2022-12-09T16:18:45.732Z,99953.00
2022-12-09T16:21:16.121Z,99953.66
2022-12-09T16:23:49.449Z,99953.88
2022-12-09T16:26:28.025Z,99936.38
2022-12-09T16:29:00.916Z,99953.50
2022-12-09T16:31:28.633Z,99962.59
2022-12-09T16:33:56.186Z,99949.75
2022-12-09T16:36:30.162Z,99954.94
2022-12-09T16:39:09.536Z,99951.47
2022-12-09T16:42:03.513Z,99916.47
2022-12-09T16:44:36.658Z,99932.34
2022-12-09T16:47:11.335Z,99933.06
2022-12-09T16:49:42.492Z,99936.66
2022-12-09T16:52:14.803Z,99941.38
2022-12-09T16:54:44.482Z,99941.88
2022-12-09T16:57:13.658Z,99942.72
2022-12-09T16:59:41.365Z,99938.09
2022-12-09T17:02:31.767Z,99938.03
2022-12-09T17:05:00.597Z,99936.25
2022-12-09T17:07:27.747Z,99954.38
2022-12-09T17:09:54.740Z,99942.34
2022-12-09T17:12:23.422Z,99948.84
2022-12-09T17:14:52.813Z,99944.16
2022-12-09T17:17:20.884Z,99936.41
2022-12-09T17:19:51.272Z,99914.91
2022-12-09T17:22:18.363Z,99940.97
2022-12-09T17:24:45.481Z,99937.53
2022-12-09T17:27:12.816Z,99943.63
2022-12-09T17:29:41.111Z,99936.19
2022-12-09T17:32:27.320Z,99937.75
2022-12-09T17:34:55.014Z,99930.44
2022-12-09T17:37:24.553Z,99912.91
2022-12-09T17:39:56.929Z,99908.78
2022-12-09T17:42:30.160Z,99939.13
2022-12-09T17:44:57.195Z,99941.94
2022-12-09T17:47:28.877Z,99934.56
2022-12-09T17:49:56.072Z,99914.16
2022-12-09T17:52:23.124Z,99935.47
2022-12-09T17:54:50.153Z,99925.34
2022-12-09T17:57:17.271Z,99924.13
2022-12-09T17:59:44.284Z,99921.81
2022-12-09T18:02:11.947Z,99914.22
2022-12-09T18:04:39.059Z,99931.81
2022-12-09T18:07:06.086Z,99924.03
2022-12-09T18:09:33.098Z,99915.34
2022-12-09T18:12:00.222Z,99916.69
2022-12-09T18:14:27.216Z,99908.81
2022-12-09T18:16:54.345Z,99910.31
2022-12-09T18:19:23.491Z,99905.16
2022-12-09T18:21:54.976Z,99895.91
2022-12-09T18:24:22.783Z,99870.16
2022-12-09T18:26:50.426Z,99892.03
2022-12-09T18:29:17.557Z,99871.84
2022-12-09T18:31:54.059Z,99882.00
2022-12-09T18:34:32.995Z,99876.06
2022-12-09T18:37:00.200Z,99867.75
2022-12-09T18:39:27.315Z,99866.81
2022-12-09T18:41:54.408Z,99876.41
2022-12-09T18:44:21.685Z,99878.19
2022-12-09T18:46:50.532Z,99881.91
2022-12-09T18:49:23.644Z,99887.31
2022-12-09T18:51:52.807Z,99876.56
2022-12-09T18:54:26.615Z,99878.47
2022-12-09T18:56:57.220Z,99850.91
2022-12-09T18:59:27.748Z,99864.63
2022-12-09T19:01:54.963Z,99866.66
2022-12-09T19:04:26.257Z,99865.56
2022-12-09T19:06:58.109Z,99856.84
2022-12-09T19:09:30.200Z,99862.16
2022-12-09T19:11:58.164Z,99840.94
2022-12-09T19:14:28.459Z,99857.03
2022-12-09T19:16:55.664Z,99845.19
2022-12-09T19:19:26.067Z,99846.88
2022-12-09T19:21:54.834Z,99846.66
2022-12-09T19:24:27.522Z,99824.09
2022-12-09T19:26:57.776Z,99835.34
2022-12-09T19:29:29.896Z,99817.13
2022-12-09T19:31:57.407Z,99813.69
2022-12-09T19:34:27.866Z,99827.75
2022-12-09T19:36:58.659Z,99836.28
2022-12-09T19:39:30.160Z,99818.22
2022-12-09T19:42:01.353Z,99828.88
2022-12-09T19:44:59.746Z,99833.50
2022-12-09T19:47:15.960Z,99832.78
2022-12-09T19:49:44.512Z,99840.00
2022-12-09T19:52:12.684Z,99838.88
2022-12-09T19:54:39.892Z,99835.13
2022-12-09T19:57:06.907Z,99840.00
2022-12-09T19:59:35.624Z,99834.28
2022-12-09T20:02:02.832Z,99837.41
2022-12-09T20:07:18.148Z,99830.00
2022-12-09T20:09:45.235Z,99839.56
2022-12-09T20:12:12.385Z,99836.75
2022-12-09T20:14:39.919Z,99839.84
2022-12-09T20:17:07.927Z,99839.31
2022-12-09T20:19:36.808Z,99847.97
2022-12-09T20:22:04.232Z,99838.31
2022-12-09T20:24:31.315Z,99842.00
2022-12-09T20:26:58.618Z,99846.09
2022-12-09T20:29:25.661Z,99841.28
2022-12-09T20:31:53.292Z,99843.38
2022-12-09T20:34:20.411Z,99845.44
2022-12-09T20:36:49.663Z,99850.16
2022-12-09T20:39:19.932Z,99854.78
2022-12-09T20:41:47.970Z,99843.31
2022-12-09T20:44:16.550Z,99852.78
2022-12-09T20:46:51.756Z,99855.28
2022-12-09T20:49:26.755Z,99863.34
2022-12-09T20:51:54.663Z,99855.47
2022-12-09T20:54:22.067Z,99843.34
2022-12-09T20:56:49.147Z,99842.41
2022-12-09T20:59:16.185Z,99829.06
2022-12-09T21:01:43.789Z,99824.91
2022-12-09T21:04:10.808Z,99825.38
2022-12-09T21:06:40.215Z,99822.97
2022-12-09T21:09:09.927Z,99836.59
2022-12-09T21:11:37.981Z,99835.84
2022-12-09T21:14:06.970Z,99847.66
2022-12-09T21:16:38.711Z,99826.22
2022-12-09T21:19:11.913Z,99821.47
2022-12-09T21:21:40.940Z,99809.25
2022-12-09T21:24:10.108Z,99810.75
2022-12-09T21:26:37.590Z,99817.59
2022-12-09T21:29:04.576Z,99809.72
2022-12-09T21:31:41.724Z,99818.69
2022-12-09T21:34:10.308Z,99822.22
2022-12-09T21:36:40.063Z,99811.63
2022-12-09T21:39:07.424Z,99794.63
2022-12-09T21:41:36.504Z,99809.59
2022-12-09T21:44:05.165Z,99787.59
2022-12-09T21:46:34.770Z,99784.06
2022-12-09T21:49:11.435Z,99793.84
2022-12-09T21:51:39.179Z,99794.22
2022-12-09T21:54:31.291Z,99790.31
2022-12-09T21:56:58.367Z,99762.47
2022-12-09T21:59:25.560Z,99774.16
2022-12-09T22:01:58.876Z,99771.81
2022-12-09T22:04:25.897Z,99773.47
2022-12-09T22:06:52.892Z,99771.09
2022-12-09T22:09:21.227Z,99760.16
2022-12-09T22:11:48.404Z,99754.78
2022-12-09T22:14:15.470Z,99748.13
2022-12-09T22:16:46.011Z,99745.19
2022-12-09T22:19:16.927Z,99747.59
2022-12-09T22:21:46.987Z,99729.50
2022-12-09T22:24:15.568Z,99761.66
2022-12-09T22:26:45.524Z,99767.72
2022-12-09T22:29:14.949Z,99773.97
2022-12-09T22:31:42.286Z,99767.88
2022-12-09T22:34:18.472Z,99761.75
2022-12-09T22:36:47.419Z,99771.09
2022-12-09T22:39:17.168Z,99777.13
2022-12-09T22:41:45.942Z,99770.28
2022-12-09T22:44:15.549Z,99770.97
2022-12-09T22:46:43.089Z,99773.97
2022-12-09T22:49:12.996Z,99766.28
2022-12-09T22:51:40.549Z,99763.78
2022-12-09T22:54:08.671Z,99763.78
2022-12-09T22:56:38.235Z,99752.53
2022-12-09T22:59:05.689Z,99768.78
2022-12-09T23:01:35.784Z,99769.44
2022-12-09T23:04:04.163Z,99766.53
2022-12-09T23:06:31.317Z,99763.66
2022-12-09T23:08:58.414Z,99757.22
2022-12-09T23:11:27.356Z,99762.19
2022-12-09T23:13:54.897Z,99753.66
2022-12-09T23:16:25.095Z,99756.16
2022-12-09T23:18:54.984Z,99765.09
2022-12-09T23:21:28.589Z,99766.09
2022-12-09T23:23:58.773Z,99768.19
2022-12-09T23:26:28.356Z,99770.38
2022-12-09T23:28:58.781Z,99757.16
2022-12-09T23:31:27.694Z,99771.88
2022-12-09T23:33:55.634Z,99770.44
2022-12-09T23:36:25.533Z,99771.72
2022-12-09T23:38:53.859Z,99779.41
2022-12-09T23:41:22.440Z,99768.38
2022-12-09T23:43:50.209Z,99782.34
2022-12-09T23:46:24.688Z,99759.50
2022-12-09T23:48:52.556Z,99778.63
2022-12-09T23:51:22.462Z,99765.31
2022-12-09T23:53:51.266Z,99777.97
2022-12-09T23:56:20.877Z,99779.13
2022-12-09T23:58:48.780Z,99774.66
